createdAt,value
2017-05-11T00:01:25.582Z,6.80
2017-05-11T00:03:53.068Z,6.70
2017-05-11T00:06:20.067Z,6.70
2017-05-11T00:08:47.096Z,6.70
2017-05-11T00:11:14.519Z,6.70
2017-05-11T00:13:41.530Z,6.60
2017-05-11T00:16:08.532Z,6.60
2017-05-11T00:18:36.664Z,6.60
2017-05-11T00:21:03.703Z,6.60
2017-05-11T00:23:30.740Z,6.70
2017-05-11T00:25:58.129Z,6.70
2017-05-11T00:28:25.094Z,6.80
2017-05-11T00:30:52.107Z,6.80
2017-05-11T00:33:19.468Z,6.70
2017-05-11T00:35:46.484Z,6.70
2017-05-11T00:38:13.493Z,6.70
2017-05-11T00:40:41.637Z,6.70
2017-05-11T00:43:08.649Z,6.90
2017-05-11T00:45:35.697Z,6.90
2017-05-11T00:48:03.080Z,6.80
2017-05-11T00:50:30.124Z,6.70
2017-05-11T00:52:57.136Z,6.70
2017-05-11T00:55:24.556Z,6.70
2017-05-11T00:57:51.571Z,6.60
2017-05-11T01:00:18.577Z,6.40
2017-05-11T01:02:45.902Z,6.60
2017-05-11T01:05:12.896Z,6.70
2017-05-11T01:07:40.627Z,6.60
2017-05-11T01:10:08.812Z,6.60
2017-05-11T01:12:35.834Z,6.80
2017-05-11T01:15:02.833Z,6.80
2017-05-11T01:17:30.654Z,6.90
2017-05-11T01:19:57.672Z,6.80
2017-05-11T01:22:24.689Z,6.70
2017-05-11T01:24:52.121Z,6.60
2017-05-11T01:27:19.880Z,6.60
2017-05-11T01:29:46.907Z,6.60
2017-05-11T01:32:14.266Z,6.60
2017-05-11T01:34:41.328Z,6.50
2017-05-11T01:37:08.344Z,6.50
2017-05-11T01:39:35.720Z,6.60
2017-05-11T01:42:02.731Z,6.70
2017-05-11T01:44:29.760Z,6.60
2017-05-11T01:46:57.169Z,6.60
2017-05-11T01:49:24.195Z,6.80
2017-05-11T01:51:51.273Z,6.60
2017-05-11T01:54:19.452Z,6.50
2017-05-11T01:56:46.429Z,6.60
2017-05-11T01:59:13.426Z,6.50
2017-05-11T02:01:40.781Z,6.40
2017-05-11T02:04:07.817Z,6.20
2017-05-11T02:06:34.831Z,6.20
2017-05-11T02:09:02.241Z,6.30
2017-05-11T02:11:29.984Z,6.30
2017-05-11T02:13:57.027Z,6.20
2017-05-11T02:16:24.336Z,6.20
2017-05-11T02:18:52.100Z,6.20
2017-05-11T02:21:19.130Z,6.40
2017-05-11T02:23:46.476Z,6.40
2017-05-11T02:26:13.633Z,6.30
2017-05-11T02:28:40.670Z,6.40
2017-05-11T02:31:08.017Z,6.10
2017-05-11T02:33:35.035Z,6.10
2017-05-11T02:36:02.052Z,6.40
2017-05-11T02:38:30.185Z,6.20
2017-05-11T02:40:57.173Z,6.20
2017-05-11T02:43:24.894Z,6.10
2017-05-11T02:45:52.170Z,6.20
2017-05-11T02:48:19.197Z,6.00
2017-05-11T02:50:46.211Z,5.80
2017-05-11T02:53:13.616Z,5.80
2017-05-11T02:55:40.635Z,5.80
2017-05-11T02:58:07.688Z,6.00
2017-05-11T03:00:35.185Z,6.10
2017-05-11T03:03:02.182Z,6.00
2017-05-11T03:05:29.201Z,6.10
2017-05-11T03:07:56.619Z,6.00
2017-05-11T03:10:23.652Z,6.10
2017-05-11T03:12:50.667Z,6.00
2017-05-11T03:15:18.065Z,6.00
2017-05-11T03:17:45.049Z,5.90
2017-05-11T03:20:12.117Z,5.70
2017-05-11T03:22:39.514Z,5.50
2017-05-11T03:25:06.552Z,5.50
2017-05-11T03:27:33.561Z,5.50
2017-05-11T03:30:00.909Z,5.70
2017-05-11T03:32:27.941Z,5.80
2017-05-11T03:34:54.994Z,5.90
2017-05-11T03:37:22.522Z,5.70
2017-05-11T03:39:49.542Z,5.50
2017-05-11T03:42:16.603Z,5.40
2017-05-11T03:44:44.078Z,5.50
2017-05-11T03:47:11.108Z,5.50
2017-05-11T03:49:38.122Z,5.70
2017-05-11T03:52:05.515Z,5.70
2017-05-11T03:54:32.540Z,5.40
2017-05-11T03:56:59.565Z,5.40
2017-05-11T03:59:26.868Z,5.30
2017-05-11T04:01:53.901Z,5.20
2017-05-11T04:04:20.908Z,5.20
2017-05-11T04:06:48.342Z,5.20
2017-05-11T04:09:15.360Z,5.20
2017-05-11T04:11:42.375Z,5.10
2017-05-11T04:14:09.748Z,5.20
2017-05-11T04:16:36.827Z,5.20
2017-05-11T04:19:03.876Z,5.20
2017-05-11T04:21:31.169Z,5.30
2017-05-11T04:23:58.209Z,5.30
2017-05-11T04:26:25.252Z,5.50
2017-05-11T04:28:53.399Z,5.40
2017-05-11T04:31:20.408Z,5.70
2017-05-11T04:33:47.540Z,5.90
2017-05-11T04:36:14.907Z,6.00
2017-05-11T04:38:41.933Z,5.80
2017-05-11T04:41:08.960Z,5.70
2017-05-11T04:43:37.124Z,5.60
2017-05-11T04:46:04.229Z,5.70
2017-05-11T04:48:31.275Z,6.00
2017-05-11T04:50:58.750Z,6.00
2017-05-11T04:53:25.802Z,6.00
2017-05-11T04:55:52.858Z,6.10
2017-05-11T04:58:20.435Z,6.20
2017-05-11T05:00:47.542Z,6.20
2017-05-11T05:03:15.338Z,6.30
2017-05-11T05:05:42.731Z,6.40
2017-05-11T05:08:09.779Z,6.60
2017-05-11T05:10:36.887Z,6.50
2017-05-11T05:13:04.227Z,6.50
2017-05-11T05:15:31.252Z,6.60
2017-05-11T05:17:58.288Z,6.80
2017-05-11T05:20:25.597Z,6.90
2017-05-11T05:22:53.395Z,6.90
2017-05-11T05:25:20.410Z,6.70
2017-05-11T05:27:47.760Z,6.80
2017-05-11T05:30:14.780Z,7.10
2017-05-11T05:32:41.796Z,7.20
2017-05-11T05:35:09.200Z,7.10
2017-05-11T05:37:36.280Z,7.40
2017-05-11T05:40:04.060Z,7.40
2017-05-11T05:42:32.189Z,7.50
2017-05-11T05:44:59.210Z,7.60
2017-05-11T05:47:26.217Z,7.70
2017-05-11T05:49:53.559Z,7.80
2017-05-11T05:52:20.579Z,7.80
2017-05-11T05:54:48.379Z,8.00
2017-05-11T05:57:16.424Z,8.20
2017-05-11T05:59:44.409Z,8.30
2017-05-11T06:02:11.427Z,8.30
2017-05-11T06:04:39.010Z,8.40
2017-05-11T06:07:06.016Z,8.50
2017-05-11T06:09:33.041Z,8.60
2017-05-11T06:12:00.453Z,8.70
2017-05-11T06:14:27.512Z,8.70
2017-05-11T06:16:54.543Z,8.90
2017-05-11T06:19:21.910Z,9.10
2017-05-11T06:21:49.778Z,9.10
2017-05-11T06:24:16.846Z,9.10
2017-05-11T06:26:44.176Z,9.20
2017-05-11T06:29:11.215Z,9.30
2017-05-11T06:31:38.281Z,9.30
2017-05-11T06:34:05.717Z,9.30
2017-05-11T06:36:32.768Z,9.30
2017-05-11T06:38:59.785Z,9.50
2017-05-11T06:41:27.169Z,9.60
2017-05-11T06:43:54.207Z,9.50
2017-05-11T06:46:21.257Z,9.50
2017-05-11T06:48:48.740Z,9.60
2017-05-11T06:51:16.501Z,9.60
2017-05-11T06:53:43.549Z,9.70
2017-05-11T06:56:10.894Z,9.70
2017-05-11T06:58:37.937Z,9.80
2017-05-11T07:01:04.972Z,9.90
2017-05-11T07:03:32.325Z,10.00
2017-05-11T07:05:59.342Z,10.00
2017-05-11T07:08:26.360Z,10.00
2017-05-11T07:10:54.524Z,10.10
2017-05-11T07:13:21.549Z,10.50
2017-05-11T07:15:48.595Z,10.50
2017-05-11T07:18:16.113Z,10.50
2017-05-11T07:20:43.316Z,10.40
2017-05-11T07:23:11.115Z,10.40
2017-05-11T07:25:38.537Z,10.50
2017-05-11T07:28:05.603Z,10.40
2017-05-11T07:30:32.665Z,10.50
2017-05-11T07:33:00.105Z,10.60
2017-05-11T07:35:27.997Z,10.50
2017-05-11T07:37:55.063Z,10.60
2017-05-11T07:40:22.460Z,10.60
2017-05-11T07:42:50.241Z,10.70
2017-05-11T07:45:17.303Z,10.60
2017-05-11T07:47:44.745Z,10.60
2017-05-11T07:50:12.521Z,10.60
2017-05-11T07:52:40.330Z,10.90
2017-05-11T07:55:07.695Z,11.00
2017-05-11T07:57:35.484Z,10.90
2017-05-11T08:00:02.491Z,11.00
2017-05-11T08:02:29.875Z,11.10
2017-05-11T08:04:56.916Z,11.00
2017-05-11T08:07:23.964Z,11.10
2017-05-11T08:09:51.442Z,11.00
2017-05-11T08:12:25.475Z,11.20
2017-05-11T08:14:52.905Z,11.30
2017-05-11T08:17:19.919Z,11.40
2017-05-11T08:19:46.922Z,11.40
2017-05-11T08:22:14.460Z,11.60
2017-05-11T08:24:41.710Z,11.60
2017-05-11T08:27:09.619Z,11.50
2017-05-11T08:29:36.926Z,11.60
2017-05-11T08:32:03.942Z,11.60
2017-05-11T08:34:30.976Z,11.80
2017-05-11T08:36:58.372Z,11.70
2017-05-11T08:39:25.359Z,11.90
2017-05-11T08:41:52.413Z,12.00
2017-05-11T08:44:20.545Z,11.80
2017-05-11T08:46:47.599Z,11.60
2017-05-11T08:49:14.645Z,11.70
2017-05-11T08:51:41.939Z,11.80
2017-05-11T08:54:08.989Z,12.00
2017-05-11T08:56:35.998Z,12.20
2017-05-11T08:59:03.454Z,12.10
2017-05-11T09:01:31.321Z,12.20
2017-05-11T09:03:58.346Z,12.30
2017-05-11T09:06:25.829Z,12.50
2017-05-11T09:08:53.792Z,12.30
2017-05-11T09:11:20.832Z,12.40
2017-05-11T09:13:48.199Z,12.40
2017-05-11T09:16:15.961Z,12.40
2017-05-11T09:18:43.725Z,12.40
2017-05-11T09:21:11.194Z,12.60
2017-05-11T09:23:38.995Z,12.40
2017-05-11T09:26:06.099Z,12.70
2017-05-11T09:28:34.224Z,12.80
2017-05-11T09:31:01.248Z,12.90
2017-05-11T09:33:29.016Z,13.10
2017-05-11T09:35:56.455Z,13.00
2017-05-11T09:38:23.481Z,13.10
2017-05-11T09:40:50.539Z,13.10
2017-05-11T09:43:17.984Z,13.20
2017-05-11T09:45:45.019Z,13.20
2017-05-11T09:48:12.052Z,13.40
2017-05-11T09:50:39.550Z,13.30
2017-05-11T09:53:07.332Z,13.20
2017-05-11T09:55:35.132Z,13.20
2017-05-11T09:58:02.536Z,13.20
2017-05-11T10:00:30.352Z,13.20
2017-05-11T10:02:57.453Z,13.40
2017-05-11T10:05:24.796Z,13.30
2017-05-11T10:07:52.612Z,13.20
2017-05-11T10:10:19.669Z,13.30
2017-05-11T10:12:47.176Z,13.50
2017-05-11T10:15:14.231Z,13.60
2017-05-11T10:17:41.377Z,13.60
2017-05-11T10:20:08.715Z,13.50
2017-05-11T10:22:42.824Z,13.60
2017-05-11T10:25:10.209Z,13.70
2017-05-11T10:27:37.301Z,13.90
2017-05-11T10:30:04.312Z,14.00
2017-05-11T10:32:31.767Z,13.90
2017-05-11T10:34:59.563Z,13.90
2017-05-11T10:37:26.601Z,14.00
2017-05-11T10:39:54.041Z,14.30
2017-05-11T10:42:21.116Z,14.30
2017-05-11T10:44:48.156Z,14.40
2017-05-11T10:47:15.596Z,14.40
2017-05-11T10:49:43.443Z,14.50
2017-05-11T10:52:11.227Z,14.50
2017-05-11T10:54:39.371Z,14.50
2017-05-11T10:57:06.519Z,14.70
2017-05-11T10:59:33.544Z,14.60
2017-05-11T11:02:00.928Z,14.70
2017-05-11T11:04:27.992Z,14.60
2017-05-11T11:06:55.778Z,14.80
2017-05-11T11:09:23.181Z,15.00
2017-05-11T11:11:50.997Z,15.00
2017-05-11T11:14:18.071Z,15.20
2017-05-11T11:16:45.470Z,15.00
2017-05-11T11:19:13.272Z,14.90
2017-05-11T11:21:40.353Z,15.00
2017-05-11T11:24:07.728Z,15.10
2017-05-11T11:26:34.724Z,15.30
2017-05-11T11:29:01.735Z,15.30
2017-05-11T11:31:29.087Z,15.50
2017-05-11T11:33:56.125Z,15.70
2017-05-11T11:36:23.191Z,15.70
2017-05-11T11:39:05.476Z,15.80
2017-05-11T11:41:32.508Z,15.60
2017-05-11T11:43:59.561Z,15.60
2017-05-11T11:46:26.934Z,15.80
2017-05-11T11:48:53.939Z,16.00
2017-05-11T11:51:20.986Z,15.90
2017-05-11T11:53:48.400Z,16.00
2017-05-11T11:56:16.257Z,15.80
2017-05-11T11:58:43.312Z,15.90
2017-05-11T12:01:10.745Z,16.00
2017-05-11T12:03:38.541Z,16.10
2017-05-11T12:06:06.327Z,16.30
2017-05-11T12:08:33.736Z,16.50
2017-05-11T12:11:03.518Z,16.40
2017-05-11T12:13:30.521Z,16.50
2017-05-11T12:15:58.690Z,16.60
2017-05-11T12:18:26.487Z,16.80
2017-05-11T12:20:53.540Z,17.00
2017-05-11T12:23:20.962Z,16.90
2017-05-11T12:25:48.748Z,17.00
2017-05-11T12:28:16.519Z,17.20
2017-05-11T12:30:43.924Z,17.30
2017-05-11T12:33:10.978Z,17.30
2017-05-11T12:35:38.017Z,17.10
2017-05-11T12:38:05.374Z,17.20
2017-05-11T12:40:32.419Z,17.40
2017-05-11T12:42:59.450Z,17.60
2017-05-11T12:45:26.844Z,17.60
2017-05-11T12:47:54.669Z,17.50
2017-05-11T12:50:21.718Z,17.70
2017-05-11T12:52:49.212Z,17.60
2017-05-11T12:55:16.228Z,17.70
2017-05-11T12:57:43.250Z,18.00
2017-05-11T13:00:10.675Z,17.90
2017-05-11T13:02:37.741Z,18.00
2017-05-11T13:05:04.864Z,18.10
2017-05-11T13:07:32.248Z,18.30
2017-05-11T13:09:59.321Z,18.20
2017-05-11T13:12:26.364Z,18.40
2017-05-11T13:14:53.753Z,18.60
2017-05-11T13:17:20.800Z,18.90
2017-05-11T13:19:47.867Z,19.10
2017-05-11T13:22:15.208Z,18.90
2017-05-11T13:24:43.344Z,18.60
2017-05-11T13:27:10.388Z,18.80
2017-05-11T13:29:37.717Z,18.90
2017-05-11T13:32:04.725Z,19.10
2017-05-11T13:34:31.816Z,19.30
2017-05-11T13:36:59.969Z,19.40
2017-05-11T13:39:26.973Z,19.80
2017-05-11T13:41:54.010Z,19.80
2017-05-11T13:44:21.341Z,19.50
2017-05-11T13:46:48.389Z,19.40
2017-05-11T13:49:16.171Z,19.80
2017-05-11T13:51:43.716Z,20.10
2017-05-11T13:54:10.766Z,20.10
2017-05-11T13:56:37.796Z,20.20
2017-05-11T13:59:06.441Z,20.10
2017-05-11T14:01:33.468Z,20.20
2017-05-11T14:04:00.548Z,20.40
2017-05-11T14:06:27.904Z,20.60
2017-05-11T14:08:54.958Z,20.90
2017-05-11T14:11:22.757Z,21.10
2017-05-11T14:13:50.175Z,21.20
2017-05-11T14:16:17.225Z,21.30
2017-05-11T14:18:44.260Z,21.70
2017-05-11T14:21:11.641Z,21.70
2017-05-11T14:23:39.600Z,21.80
2017-05-11T14:26:06.656Z,22.10
2017-05-11T14:28:34.116Z,21.90
2017-05-11T14:31:01.143Z,22.20
2017-05-11T14:33:28.965Z,22.90
2017-05-11T14:35:56.391Z,23.60
2017-05-11T14:38:23.516Z,23.90
2017-05-11T14:40:50.581Z,23.50
2017-05-11T14:43:18.022Z,23.60
2017-05-11T14:45:45.785Z,24.40
2017-05-11T14:48:13.560Z,24.70
2017-05-11T14:50:41.717Z,25.00
2017-05-11T14:53:09.534Z,25.70
2017-05-11T14:55:36.555Z,26.70
2017-05-11T14:58:03.990Z,28.20
2017-05-11T15:00:31.049Z,29.20
2017-05-11T15:02:58.097Z,29.60
2017-05-11T15:05:25.506Z,30.50
2017-05-11T15:07:52.520Z,30.40
2017-05-11T15:10:19.577Z,31.60
2017-05-11T15:12:46.971Z,32.90
2017-05-11T15:15:14.788Z,33.90
2017-05-11T15:17:41.823Z,33.40
2017-05-11T15:20:09.205Z,33.50
2017-05-11T15:22:36.234Z,34.40
2017-05-11T15:25:03.255Z,34.50
2017-05-11T15:27:30.652Z,35.20
2017-05-11T15:29:57.724Z,34.80
2017-05-11T15:32:24.785Z,35.60
2017-05-11T15:34:52.225Z,35.80
2017-05-11T15:37:19.989Z,36.00
2017-05-11T15:39:47.269Z,36.00
2017-05-11T15:42:14.600Z,36.40
2017-05-11T15:44:41.655Z,37.00
2017-05-11T15:47:08.716Z,36.50
2017-05-11T15:49:36.112Z,37.00
2017-05-11T15:52:03.842Z,37.20
2017-05-11T15:54:30.927Z,37.50
2017-05-11T15:56:59.091Z,37.90
2017-05-11T15:59:26.144Z,38.10
2017-05-11T16:01:53.916Z,37.30
2017-05-11T16:04:22.068Z,37.00
2017-05-11T16:06:49.847Z,37.30
2017-05-11T16:09:16.911Z,37.70
2017-05-11T16:11:44.339Z,37.30
2017-05-11T16:14:12.120Z,38.10
2017-05-11T16:16:39.201Z,37.30
2017-05-11T16:19:06.603Z,36.80
2017-05-11T16:21:34.403Z,37.50
2017-05-11T16:24:01.422Z,38.20
2017-05-11T16:26:28.867Z,37.50
2017-05-11T16:28:56.661Z,37.30
2017-05-11T16:31:23.703Z,37.90
2017-05-11T16:33:51.513Z,38.10
2017-05-11T16:36:19.335Z,38.30
2017-05-11T16:38:46.365Z,37.90
2017-05-11T16:41:13.813Z,38.10
2017-05-11T16:43:40.916Z,38.10
2017-05-11T16:46:07.972Z,38.20
2017-05-11T16:48:35.303Z,37.90
2017-05-11T16:51:02.356Z,39.10
2017-05-11T16:53:29.360Z,38.80
2017-05-11T16:55:56.780Z,38.70
2017-05-11T16:58:23.784Z,39.10
2017-05-11T17:00:50.813Z,39.30
2017-05-11T17:03:18.233Z,39.10
2017-05-11T17:05:46.007Z,39.00
2017-05-11T17:08:13.770Z,39.10
2017-05-11T17:10:41.929Z,38.10
2017-05-11T17:13:08.992Z,37.20
2017-05-11T17:15:36.024Z,37.10
2017-05-11T17:18:04.281Z,36.90
2017-05-11T17:20:31.304Z,37.20
2017-05-11T17:22:59.072Z,37.30
2017-05-11T17:25:26.424Z,37.30
2017-05-11T17:27:53.454Z,36.60
2017-05-11T17:30:20.484Z,36.50
2017-05-11T17:32:47.873Z,36.70
2017-05-11T17:35:15.008Z,36.80
2017-05-11T17:37:42.044Z,36.30
2017-05-11T17:40:09.521Z,35.20
2017-05-11T17:42:36.586Z,34.90
2017-05-11T17:45:03.796Z,34.80
2017-05-11T17:47:31.174Z,33.90
2017-05-11T17:49:58.199Z,33.60
2017-05-11T17:52:25.248Z,33.10
2017-05-11T17:57:26.408Z,32.40
2017-05-11T17:59:53.878Z,32.60
2017-05-11T18:02:21.722Z,31.70
2017-05-11T18:04:48.736Z,31.20
2017-05-11T18:07:16.141Z,30.30
2017-05-11T18:09:43.947Z,30.10
2017-05-11T18:12:11.008Z,29.60
2017-05-11T18:14:38.516Z,28.70
2017-05-11T18:17:05.585Z,28.10
2017-05-11T18:19:32.657Z,27.80
2017-05-11T18:22:00.879Z,27.20
2017-05-11T18:24:28.604Z,26.70
2017-05-11T18:26:55.652Z,26.10
2017-05-11T18:29:23.016Z,25.10
2017-05-11T18:31:50.070Z,24.80
2017-05-11T18:34:17.877Z,24.00
2017-05-11T18:36:45.288Z,23.60
2017-05-11T18:39:12.369Z,22.80
2017-05-11T18:41:39.485Z,22.60
2017-05-11T18:44:06.952Z,22.50
2017-05-11T18:46:34.087Z,22.50
2017-05-11T18:49:01.212Z,22.40
2017-05-11T18:51:28.559Z,22.00
2017-05-11T18:53:55.600Z,21.50
2017-05-11T18:56:22.698Z,21.20
2017-05-11T18:58:50.254Z,20.90
2017-05-11T19:01:18.056Z,20.20
2017-05-11T19:03:45.173Z,20.10
2017-05-11T19:06:13.345Z,19.80
2017-05-11T19:08:40.387Z,19.70
2017-05-11T19:11:07.406Z,19.50
2017-05-11T19:13:34.775Z,19.20
2017-05-11T19:16:01.864Z,19.10
2017-05-11T19:18:28.964Z,19.10
2017-05-11T19:20:56.347Z,18.80
2017-05-11T19:23:23.361Z,18.70
2017-05-11T19:25:50.383Z,18.40
2017-05-11T19:28:17.708Z,18.20
2017-05-11T19:30:44.713Z,18.20
2017-05-11T19:33:11.727Z,17.80
2017-05-11T19:35:47.654Z,17.80
2017-05-11T19:38:14.683Z,18.00
2017-05-11T19:40:41.701Z,17.90
2017-05-11T19:43:09.107Z,17.90
2017-05-11T19:45:36.164Z,17.70
2017-05-11T19:48:03.192Z,17.50
2017-05-11T19:50:30.543Z,17.50
2017-05-11T19:52:57.580Z,17.30
2017-05-11T19:55:24.625Z,17.20
2017-05-11T19:57:51.933Z,17.00
2017-05-11T20:00:19.696Z,17.00
2017-05-11T20:02:47.451Z,17.00
2017-05-11T20:05:15.584Z,16.90
2017-05-11T20:07:42.651Z,17.00
2017-05-11T20:10:09.683Z,16.80
2017-05-11T20:12:37.061Z,16.70
2017-05-11T20:15:04.109Z,16.80
2017-05-11T20:17:31.173Z,16.70
2017-05-11T20:19:59.328Z,16.60
2017-05-11T20:22:26.330Z,16.80
2017-05-11T20:24:53.346Z,16.80
2017-05-11T20:27:21.500Z,16.60
2017-05-11T20:29:48.511Z,16.60
2017-05-11T20:32:15.528Z,16.40
2017-05-11T20:34:43.976Z,16.20
2017-05-11T20:37:11.759Z,16.00
2017-05-11T20:39:38.882Z,16.10
2017-05-11T20:42:06.229Z,16.10
2017-05-11T20:44:33.232Z,16.10
2017-05-11T20:47:00.260Z,15.90
2017-05-11T20:49:27.685Z,15.80
2017-05-11T20:51:54.723Z,15.80
2017-05-11T20:54:21.768Z,15.80
2017-05-11T20:56:49.124Z,15.70
2017-05-11T20:59:16.157Z,15.60
2017-05-11T21:01:43.201Z,15.70
2017-05-11T21:04:10.593Z,15.60
2017-05-11T21:06:37.620Z,15.70
2017-05-11T21:09:04.680Z,15.70
2017-05-11T21:11:31.996Z,15.50
2017-05-11T21:13:59.093Z,15.40
2017-05-11T21:16:26.834Z,15.20
2017-05-11T21:18:54.312Z,15.40
2017-05-11T21:21:22.069Z,15.20
2017-05-11T21:23:49.080Z,15.30
2017-05-11T21:26:16.470Z,15.20
2017-05-11T21:28:43.507Z,15.20
2017-05-11T21:31:10.529Z,15.20
2017-05-11T21:33:37.932Z,15.20
2017-05-11T21:36:04.967Z,15.00
2017-05-11T21:38:31.992Z,15.00
2017-05-11T21:40:59.312Z,15.00
2017-05-11T21:43:26.346Z,14.60
2017-05-11T21:45:53.433Z,14.80
2017-05-11T21:48:20.736Z,14.80
2017-05-11T21:50:47.746Z,14.70
2017-05-11T21:53:14.744Z,14.90
2017-05-11T21:55:42.057Z,14.80
2017-05-11T21:58:09.068Z,14.70
2017-05-11T22:00:36.074Z,14.80
2017-05-11T22:03:03.429Z,14.80
2017-05-11T22:05:31.184Z,14.40
2017-05-11T22:07:58.236Z,14.50
2017-05-11T22:10:25.686Z,14.50
2017-05-11T22:12:52.681Z,14.60
2017-05-11T22:15:19.677Z,14.50
2017-05-11T22:17:47.151Z,14.50
2017-05-11T22:20:14.155Z,14.50
2017-05-11T22:22:41.172Z,14.50
2017-05-11T22:25:09.305Z,14.50
2017-05-11T22:27:36.328Z,14.50
2017-05-11T22:30:03.311Z,14.40
2017-05-11T22:32:30.648Z,14.50
2017-05-11T22:34:57.640Z,14.60
2017-05-11T22:37:25.389Z,14.50
2017-05-11T22:39:52.668Z,14.50
2017-05-11T22:42:19.679Z,14.40
2017-05-11T22:44:46.753Z,14.40
2017-05-11T22:47:15.002Z,14.20
2017-05-11T22:49:42.042Z,14.30
2017-05-11T22:52:09.168Z,14.30
2017-05-11T22:54:36.539Z,14.30
2017-05-11T22:57:03.545Z,14.30
2017-05-11T22:59:30.547Z,14.40
2017-05-11T23:01:57.908Z,14.20
2017-05-11T23:04:25.657Z,14.30
2017-05-11T23:06:52.718Z,14.30
2017-05-11T23:09:20.175Z,14.20
2017-05-11T23:11:47.933Z,14.20
2017-05-11T23:14:14.949Z,14.10
2017-05-11T23:16:42.340Z,14.10
2017-05-11T23:19:09.365Z,14.20
2017-05-11T23:21:36.384Z,14.20
2017-05-11T23:24:03.676Z,14.10
2017-05-11T23:26:30.668Z,14.20
2017-05-11T23:28:57.689Z,14.20
2017-05-11T23:31:25.736Z,14.00
2017-05-11T23:33:52.745Z,14.00
2017-05-11T23:36:20.545Z,14.00
2017-05-11T23:38:47.901Z,14.20
2017-05-11T23:41:14.907Z,14.20
2017-05-11T23:43:41.937Z,14.20
2017-05-11T23:46:09.385Z,14.30
2017-05-11T23:48:36.385Z,14.20
2017-05-11T23:51:03.394Z,14.10
2017-05-11T23:53:31.450Z,14.10
2017-05-11T23:55:58.461Z,14.00
2017-05-11T23:58:25.468Z,14.10
